createdAt,value
2023-02-20T00:00:55.647Z,4.67
2023-02-20T00:03:22.769Z,4.58
2023-02-20T00:05:49.553Z,4.86
2023-02-20T00:08:16.702Z,4.73
2023-02-20T00:10:43.648Z,4.81
2023-02-20T00:13:13.615Z,4.98
2023-02-20T00:15:40.566Z,4.86
2023-02-20T00:18:10.237Z,4.80
2023-02-20T00:20:37.737Z,4.90
2023-02-20T00:23:04.665Z,4.88
2023-02-20T00:25:31.610Z,4.94
2023-02-20T00:27:58.625Z,4.98
2023-02-20T00:30:25.665Z,4.76
2023-02-20T00:32:57.138Z,4.82
2023-02-20T00:35:25.736Z,5.02
2023-02-20T00:37:53.689Z,4.97
2023-02-20T00:40:28.114Z,4.89
2023-02-20T00:42:55.098Z,4.84
2023-02-20T00:45:22.288Z,4.87
2023-02-20T00:47:49.249Z,4.78
2023-02-20T00:50:17.954Z,4.96
2023-02-20T00:52:44.925Z,4.95
2023-02-20T00:55:12.596Z,4.80
2023-02-20T00:57:39.614Z,4.72
2023-02-20T01:00:08.682Z,4.75
2023-02-20T01:02:35.629Z,4.64
2023-02-20T01:05:02.609Z,4.61
2023-02-20T01:07:32.344Z,4.77
2023-02-20T01:09:59.257Z,5.03
2023-02-20T01:12:26.241Z,5.05
2023-02-20T01:14:53.142Z,4.82
2023-02-20T01:17:21.154Z,5.16
2023-02-20T01:19:48.240Z,5.19
2023-02-20T01:22:15.189Z,5.17
2023-02-20T01:24:43.610Z,5.23
2023-02-20T01:27:10.813Z,5.19
2023-02-20T01:29:37.764Z,5.29
2023-02-20T01:32:05.066Z,5.24
2023-02-20T01:34:32.200Z,5.26
2023-02-20T01:37:00.442Z,5.12
2023-02-20T01:39:29.222Z,5.17
2023-02-20T01:41:59.962Z,5.11
2023-02-20T01:44:31.035Z,5.21
2023-02-20T01:46:59.792Z,5.22
2023-02-20T01:49:46.126Z,5.27
2023-02-20T01:52:32.208Z,5.31
2023-02-20T01:55:02.160Z,5.28
2023-02-20T01:57:32.788Z,5.44
2023-02-20T02:00:10.735Z,5.30
2023-02-20T02:02:41.918Z,5.29
2023-02-20T02:05:12.014Z,5.32
2023-02-20T02:07:39.961Z,5.29
2023-02-20T02:10:16.732Z,5.48
2023-02-20T02:12:47.895Z,5.48
2023-02-20T02:15:17.518Z,5.58
2023-02-20T02:18:08.139Z,5.68
2023-02-20T02:21:15.172Z,5.46
2023-02-20T02:24:12.390Z,5.60
2023-02-20T02:27:16.710Z,5.50
2023-02-20T02:30:36.476Z,5.67
2023-02-20T02:33:37.125Z,5.69
2023-02-20T02:36:31.319Z,5.70
2023-02-20T02:39:36.651Z,5.69
2023-02-20T02:42:09.516Z,5.71
2023-02-20T02:44:49.461Z,5.74
2023-02-20T02:47:23.760Z,5.74
2023-02-20T02:50:00.028Z,5.77
2023-02-20T02:52:41.460Z,5.71
2023-02-20T02:55:10.233Z,5.70
2023-02-20T02:57:37.046Z,5.73
2023-02-20T03:00:12.501Z,5.84
2023-02-20T03:03:10.169Z,5.91
2023-02-20T03:05:46.599Z,5.92
2023-02-20T03:08:43.561Z,5.84
2023-02-20T03:11:15.519Z,5.89
2023-02-20T03:14:24.142Z,5.94
2023-02-20T03:17:02.037Z,5.99
2023-02-20T03:19:36.036Z,5.94
2023-02-20T03:22:09.750Z,6.03
2023-02-20T03:24:55.540Z,5.98
2023-02-20T03:27:43.400Z,5.83
2023-02-20T03:30:18.530Z,5.83
2023-02-20T03:33:08.430Z,5.68
2023-02-20T03:35:57.887Z,5.65
2023-02-20T03:38:44.147Z,5.51
2023-02-20T03:41:34.708Z,5.50
2023-02-20T03:44:04.872Z,5.61
2023-02-20T03:46:36.656Z,5.59
2023-02-20T03:49:12.980Z,5.71
2023-02-20T03:51:41.697Z,5.78
2023-02-20T03:54:09.348Z,5.79
2023-02-20T03:56:42.354Z,5.73
2023-02-20T03:59:18.637Z,5.82
2023-02-20T04:01:49.490Z,5.83
2023-02-20T04:04:27.117Z,5.57
2023-02-20T04:06:54.696Z,5.62
2023-02-20T04:09:24.423Z,5.48
2023-02-20T04:11:57.074Z,5.39
2023-02-20T04:14:27.851Z,5.40
2023-02-20T04:17:03.846Z,5.33
2023-02-20T04:19:31.273Z,5.32
2023-02-20T04:22:04.907Z,5.20
2023-02-20T04:24:37.511Z,5.42
2023-02-20T04:27:04.771Z,5.39
2023-02-20T04:29:31.774Z,5.33
2023-02-20T04:31:59.035Z,5.31
2023-02-20T04:34:26.257Z,5.34
2023-02-20T04:37:08.071Z,5.22
2023-02-20T04:39:35.183Z,5.25
2023-02-20T04:42:02.077Z,5.28
2023-02-20T04:44:31.553Z,5.34
2023-02-20T04:47:03.987Z,5.36
2023-02-20T04:49:31.001Z,5.37
2023-02-20T04:51:58.092Z,5.27
2023-02-20T04:54:25.253Z,5.14
2023-02-20T04:56:52.722Z,5.41
2023-02-20T04:59:19.894Z,5.33
2023-02-20T05:01:49.692Z,5.49
2023-02-20T05:04:17.151Z,5.41
2023-02-20T05:06:46.703Z,5.39
2023-02-20T05:09:14.752Z,5.37
2023-02-20T05:11:42.411Z,5.61
2023-02-20T05:14:09.608Z,5.58
2023-02-20T05:16:40.096Z,5.65
2023-02-20T05:19:08.392Z,5.53
2023-02-20T05:21:54.352Z,5.50
2023-02-20T05:24:21.977Z,5.49
2023-02-20T05:26:49.027Z,5.47
2023-02-20T05:29:15.997Z,5.58
2023-02-20T05:31:43.205Z,5.57
2023-02-20T05:34:10.108Z,5.55
2023-02-20T05:36:36.926Z,5.56
2023-02-20T05:39:05.101Z,5.62
2023-02-20T05:41:32.551Z,5.69
2023-02-20T05:44:00.187Z,5.72
2023-02-20T05:46:28.351Z,5.79
2023-02-20T05:48:55.636Z,5.83
2023-02-20T05:51:25.720Z,5.63
2023-02-20T05:53:52.924Z,5.79
2023-02-20T05:56:20.586Z,5.70
2023-02-20T05:58:47.940Z,5.74
2023-02-20T06:01:22.883Z,5.75
2023-02-20T06:03:49.923Z,5.65
2023-02-20T06:06:17.381Z,5.79
2023-02-20T06:08:45.059Z,5.78
2023-02-20T06:11:13.442Z,5.80
2023-02-20T06:13:41.939Z,5.85
2023-02-20T06:16:09.963Z,5.95
2023-02-20T06:18:41.845Z,6.05
2023-02-20T06:21:12.593Z,6.27
2023-02-20T06:23:40.293Z,6.30
2023-02-20T06:26:07.852Z,6.42
2023-02-20T06:28:35.275Z,6.51
2023-02-20T06:31:02.659Z,6.49
2023-02-20T06:33:30.360Z,6.44
2023-02-20T06:35:57.853Z,6.49
2023-02-20T06:38:25.813Z,6.46
2023-02-20T06:40:52.737Z,6.50
2023-02-20T06:43:20.100Z,6.56
2023-02-20T06:45:47.833Z,6.65
2023-02-20T06:48:15.400Z,6.58
2023-02-20T06:50:42.612Z,6.56
2023-02-20T06:53:12.687Z,6.50
2023-02-20T06:55:39.598Z,6.43
2023-02-20T06:58:06.604Z,6.68
2023-02-20T07:00:33.505Z,6.69
2023-02-20T07:03:00.568Z,6.71
2023-02-20T07:05:27.441Z,6.74
2023-02-20T07:07:54.577Z,6.86
2023-02-20T07:10:21.661Z,6.80
2023-02-20T07:12:48.775Z,6.89
2023-02-20T07:15:15.809Z,6.97
2023-02-20T07:17:42.717Z,7.02
2023-02-20T07:20:10.727Z,7.07
2023-02-20T07:22:37.921Z,7.05
2023-02-20T07:25:05.366Z,7.08
2023-02-20T07:27:32.705Z,7.07
2023-02-20T07:29:59.664Z,7.12
2023-02-20T07:32:26.541Z,7.26
2023-02-20T07:35:03.707Z,7.04
2023-02-20T07:37:31.907Z,7.25
2023-02-20T07:39:58.915Z,7.16
2023-02-20T07:42:26.538Z,7.16
2023-02-20T07:44:53.292Z,7.24
2023-02-20T07:47:20.363Z,7.31
2023-02-20T07:49:47.666Z,6.87
2023-02-20T07:52:15.237Z,7.29
2023-02-20T07:54:42.393Z,7.18
2023-02-20T07:57:09.790Z,7.40
2023-02-20T07:59:39.025Z,7.25
2023-02-20T08:02:06.047Z,7.40
2023-02-20T08:04:33.368Z,7.37
2023-02-20T08:07:00.304Z,7.49
2023-02-20T08:09:27.258Z,7.34
2023-02-20T08:11:54.178Z,7.38
2023-02-20T08:14:21.022Z,7.49
2023-02-20T08:16:47.783Z,7.41
2023-02-20T08:19:14.861Z,7.52
2023-02-20T08:21:42.084Z,7.48
2023-02-20T08:24:09.077Z,7.53
2023-02-20T08:26:36.018Z,7.62
2023-02-20T08:29:02.728Z,7.60
2023-02-20T08:31:32.956Z,7.52
2023-02-20T08:34:01.639Z,7.54
2023-02-20T08:36:30.898Z,7.68
2023-02-20T08:39:00.860Z,7.67
2023-02-20T08:41:28.052Z,7.67
2023-02-20T08:43:54.930Z,7.78
2023-02-20T08:46:22.399Z,7.67
2023-02-20T08:48:49.537Z,7.64
2023-02-20T08:51:19.770Z,7.79
2023-02-20T08:53:46.801Z,7.80
2023-02-20T08:56:14.327Z,7.69
2023-02-20T08:58:41.407Z,7.65
2023-02-20T09:01:08.293Z,7.96
2023-02-20T09:03:38.793Z,7.96
2023-02-20T09:06:06.271Z,7.94
2023-02-20T09:08:33.590Z,7.99
2023-02-20T09:11:00.724Z,7.92
2023-02-20T09:13:27.755Z,7.91
2023-02-20T09:15:54.894Z,8.00
2023-02-20T09:18:21.758Z,8.06
2023-02-20T09:20:48.717Z,7.96
2023-02-20T09:23:15.571Z,7.88
2023-02-20T09:25:42.502Z,8.04
2023-02-20T09:28:09.482Z,8.06
2023-02-20T09:30:36.404Z,8.11
2023-02-20T09:33:03.358Z,8.14
2023-02-20T09:35:33.059Z,8.24
2023-02-20T09:38:00.434Z,8.17
2023-02-20T09:40:31.978Z,8.30
2023-02-20T09:43:04.761Z,8.30
2023-02-20T09:45:34.788Z,8.47
2023-02-20T09:48:23.627Z,8.41
2023-02-20T09:51:22.638Z,8.53
2023-02-20T09:54:10.622Z,8.56
2023-02-20T09:56:42.392Z,8.57
2023-02-20T09:59:38.274Z,8.49
2023-02-20T10:02:18.559Z,8.51
2023-02-20T10:05:00.984Z,8.46
2023-02-20T10:07:36.943Z,8.55
2023-02-20T10:10:20.928Z,8.64
2023-02-20T10:13:09.724Z,8.65
2023-02-20T10:16:01.818Z,8.69
2023-02-20T10:18:54.971Z,8.62
2023-02-20T10:21:56.983Z,8.76
2023-02-20T10:24:56.231Z,8.88
2023-02-20T10:27:43.275Z,8.74
2023-02-20T10:30:19.290Z,8.74
2023-02-20T10:32:53.294Z,8.72
2023-02-20T10:35:27.742Z,8.68
2023-02-20T10:37:58.457Z,8.81
2023-02-20T10:40:39.109Z,8.86
2023-02-20T10:43:34.044Z,8.98
2023-02-20T10:46:19.325Z,8.97
2023-02-20T10:48:47.568Z,8.89
2023-02-20T10:51:28.292Z,8.78
2023-02-20T10:54:17.811Z,8.80
2023-02-20T10:57:01.052Z,8.89
2023-02-20T10:59:40.660Z,8.87
2023-02-20T11:02:19.270Z,8.89
2023-02-20T11:04:57.655Z,8.86
2023-02-20T11:07:24.887Z,8.89
2023-02-20T11:09:51.671Z,8.73
2023-02-20T11:12:34.886Z,8.85
2023-02-20T11:15:16.164Z,8.97
2023-02-20T11:17:44.752Z,9.05
2023-02-20T11:20:33.033Z,9.25
2023-02-20T11:23:01.726Z,9.46
2023-02-20T11:25:36.930Z,9.61
2023-02-20T11:28:23.947Z,9.59
2023-02-20T11:31:05.400Z,9.71
2023-02-20T11:33:36.311Z,9.59
2023-02-20T11:36:35.272Z,9.59
2023-02-20T11:39:04.402Z,9.59
2023-02-20T11:41:34.574Z,9.81
2023-02-20T11:44:10.470Z,9.88
2023-02-20T11:46:37.554Z,9.83
2023-02-20T11:49:12.457Z,9.87
2023-02-20T11:51:45.783Z,9.97
2023-02-20T11:54:19.728Z,10.08
2023-02-20T11:57:07.176Z,9.95
2023-02-20T11:59:40.743Z,9.93
2023-02-20T12:02:33.888Z,9.92
2023-02-20T12:05:06.763Z,9.90
2023-02-20T12:07:43.484Z,9.94
2023-02-20T12:10:23.380Z,10.00
2023-02-20T12:12:50.280Z,10.02
2023-02-20T12:15:19.692Z,10.01
2023-02-20T12:17:58.375Z,10.01
2023-02-20T12:20:29.080Z,9.99
2023-02-20T12:22:55.996Z,9.92
2023-02-20T12:25:53.998Z,9.93
2023-02-20T12:28:49.331Z,9.84
2023-02-20T12:31:37.065Z,9.79
2023-02-20T12:34:11.815Z,9.73
2023-02-20T12:36:43.579Z,9.79
2023-02-20T12:39:43.470Z,9.80
2023-02-20T12:42:17.571Z,9.67
2023-02-20T12:45:07.168Z,9.81
2023-02-20T12:47:40.324Z,9.68
2023-02-20T12:50:49.538Z,9.64
2023-02-20T12:53:36.558Z,9.73
2023-02-20T12:56:44.230Z,9.70
2023-02-20T12:59:31.443Z,9.60
2023-02-20T13:02:15.884Z,9.39
2023-02-20T13:04:48.917Z,9.67
2023-02-20T13:07:28.194Z,9.65
2023-02-20T13:10:07.563Z,9.67
2023-02-20T13:12:34.406Z,9.56
2023-02-20T13:15:07.719Z,9.75
2023-02-20T13:17:45.686Z,9.75
2023-02-20T13:20:35.468Z,9.66
2023-02-20T13:23:05.896Z,9.59
2023-02-20T13:25:47.081Z,9.63
2023-02-20T13:28:33.253Z,9.70
2023-02-20T13:31:17.504Z,9.68
2023-02-20T13:34:10.567Z,9.65
2023-02-20T13:36:49.359Z,9.59
2023-02-20T13:39:19.114Z,9.62
2023-02-20T13:41:55.178Z,9.65
2023-02-20T13:44:40.478Z,9.65
2023-02-20T13:47:26.988Z,9.76
2023-02-20T13:49:58.939Z,9.67
2023-02-20T13:52:45.149Z,9.68
2023-02-20T13:55:13.874Z,9.68
2023-02-20T13:57:49.859Z,9.66
2023-02-20T14:00:47.595Z,9.67
2023-02-20T14:03:22.681Z,9.61
2023-02-20T14:06:08.609Z,9.72
2023-02-20T14:08:37.919Z,9.79
2023-02-20T14:11:24.269Z,9.62
2023-02-20T14:13:53.689Z,9.74
2023-02-20T14:16:34.151Z,9.55
2023-02-20T14:19:21.182Z,9.67
2023-02-20T14:21:48.412Z,9.74
2023-02-20T14:24:28.066Z,9.70
2023-02-20T14:26:57.231Z,9.66
2023-02-20T14:29:31.940Z,9.59
2023-02-20T14:32:01.170Z,9.69
2023-02-20T14:34:28.234Z,9.70
2023-02-20T14:37:15.324Z,9.69
2023-02-20T14:39:58.463Z,9.58
2023-02-20T14:42:26.563Z,9.61
2023-02-20T14:45:02.939Z,9.63
2023-02-20T14:47:32.058Z,9.65
2023-02-20T14:50:16.561Z,9.70
2023-02-20T14:52:43.660Z,9.68
2023-02-20T14:55:17.919Z,9.65
2023-02-20T14:57:44.929Z,9.57
2023-02-20T15:00:27.184Z,9.63
2023-02-20T15:02:56.552Z,9.60
2023-02-20T15:05:32.918Z,9.63
2023-02-20T15:08:15.534Z,9.66
2023-02-20T15:10:46.367Z,9.57
2023-02-20T15:13:19.732Z,9.52
2023-02-20T15:15:50.939Z,9.42
2023-02-20T15:18:37.681Z,9.34
2023-02-20T15:21:05.817Z,9.31
2023-02-20T15:23:33.678Z,9.26
2023-02-20T15:26:30.219Z,9.04
2023-02-20T15:29:19.019Z,9.11
2023-02-20T15:32:04.226Z,9.06
2023-02-20T15:34:38.345Z,8.94
2023-02-20T15:37:33.657Z,8.87
2023-02-20T15:40:27.667Z,8.80
2023-02-20T15:42:58.783Z,8.74
2023-02-20T15:45:30.961Z,8.79
2023-02-20T15:47:59.634Z,8.75
2023-02-20T15:50:29.265Z,8.70
2023-02-20T15:52:58.917Z,8.70
2023-02-20T15:55:27.450Z,8.73
2023-02-20T15:57:56.940Z,8.61
2023-02-20T16:00:27.956Z,8.63
2023-02-20T16:02:55.064Z,8.65
2023-02-20T16:05:22.477Z,8.50
2023-02-20T16:07:49.518Z,8.53
2023-02-20T16:10:19.047Z,8.49
2023-02-20T16:12:47.313Z,8.44
2023-02-20T16:15:19.000Z,8.50
2023-02-20T16:17:45.932Z,8.49
2023-02-20T16:20:18.064Z,8.42
2023-02-20T16:22:45.216Z,8.49
2023-02-20T16:25:15.689Z,8.46
2023-02-20T16:27:43.200Z,8.25
2023-02-20T16:30:32.299Z,8.43
2023-02-20T16:33:00.777Z,8.34
2023-02-20T16:35:27.698Z,8.25
2023-02-20T16:37:54.750Z,8.34
2023-02-20T16:40:21.955Z,8.32
2023-02-20T16:42:49.265Z,8.25
2023-02-20T16:45:19.469Z,8.31
2023-02-20T16:47:51.429Z,8.18
2023-02-20T16:50:21.380Z,8.29
2023-02-20T16:52:51.020Z,8.25
2023-02-20T16:55:31.386Z,8.31
2023-02-20T16:57:58.781Z,8.33
2023-02-20T17:00:30.822Z,8.38
2023-02-20T17:02:58.788Z,8.32
2023-02-20T17:05:30.835Z,8.26
2023-02-20T17:07:59.111Z,8.28
2023-02-20T17:10:29.426Z,8.31
2023-02-20T17:12:57.469Z,8.23
2023-02-20T17:15:26.312Z,8.29
2023-02-20T17:17:54.379Z,8.26
2023-02-20T17:20:25.078Z,8.27
2023-02-20T17:23:04.006Z,8.17
2023-02-20T17:25:36.017Z,8.22
2023-02-20T17:28:04.090Z,8.23
2023-02-20T17:30:31.840Z,8.21
2023-02-20T17:32:59.713Z,8.23
2023-02-20T17:35:27.279Z,8.27
2023-02-20T17:37:54.262Z,8.26
2023-02-20T17:40:21.411Z,8.11
2023-02-20T17:42:48.316Z,8.13
2023-02-20T17:45:16.537Z,8.22
2023-02-20T17:47:43.566Z,8.22
2023-02-20T17:50:13.253Z,8.22
2023-02-20T17:52:40.474Z,8.25
2023-02-20T17:55:08.346Z,8.32
2023-02-20T17:57:36.680Z,8.28
2023-02-20T18:00:07.166Z,8.26
2023-02-20T18:02:34.177Z,8.31
2023-02-20T18:05:01.222Z,8.17
2023-02-20T18:07:28.569Z,8.30
2023-02-20T18:09:57.426Z,8.28
2023-02-20T18:12:24.851Z,8.14
2023-02-20T18:14:52.164Z,8.36
2023-02-20T18:17:19.170Z,8.29
2023-02-20T18:19:46.372Z,8.37
2023-02-20T18:22:22.006Z,8.46
2023-02-20T18:24:51.676Z,8.42
2023-02-20T18:27:21.463Z,8.47
2023-02-20T18:29:48.439Z,8.45
2023-02-20T18:32:15.417Z,8.48
2023-02-20T18:34:42.355Z,8.51
2023-02-20T18:37:09.344Z,8.46
2023-02-20T18:39:36.288Z,8.47
2023-02-20T18:42:03.369Z,8.47
2023-02-20T18:44:32.842Z,8.57
2023-02-20T18:47:00.798Z,8.52
2023-02-20T18:49:27.785Z,8.54
2023-02-20T18:51:57.579Z,8.63
2023-02-20T18:54:27.337Z,8.68
2023-02-20T18:56:55.362Z,8.68
2023-02-20T18:59:23.157Z,8.77
2023-02-20T19:01:49.992Z,8.76
2023-02-20T19:04:16.944Z,8.67
2023-02-20T19:06:44.870Z,8.67
2023-02-20T19:09:16.005Z,8.74
2023-02-20T19:11:42.975Z,8.76
2023-02-20T19:14:09.978Z,8.74
2023-02-20T19:16:36.842Z,8.35
2023-02-20T19:19:03.727Z,8.79
2023-02-20T19:21:31.496Z,8.73
2023-02-20T19:23:59.707Z,8.73
2023-02-20T19:26:26.463Z,8.67
2023-02-20T19:28:53.605Z,8.75
2023-02-20T19:31:20.660Z,8.76
2023-02-20T19:33:53.039Z,8.74
2023-02-20T19:36:20.011Z,8.67
2023-02-20T19:38:47.246Z,8.65
2023-02-20T19:41:16.227Z,8.67
2023-02-20T19:43:44.625Z,8.64
2023-02-20T19:46:19.011Z,8.68
2023-02-20T19:48:46.245Z,8.68
2023-02-20T19:51:14.764Z,8.64
2023-02-20T19:53:41.765Z,8.77
2023-02-20T19:56:10.271Z,8.74
2023-02-20T19:58:40.497Z,8.74
2023-02-20T20:01:18.165Z,8.77
2023-02-20T20:03:49.312Z,8.65
2023-02-20T20:06:17.978Z,8.60
2023-02-20T20:09:10.065Z,8.64
2023-02-20T20:11:32.762Z,8.63
2023-02-20T20:13:59.889Z,8.59
2023-02-20T20:16:26.974Z,8.67
2023-02-20T20:18:54.792Z,8.72
2023-02-20T20:21:22.302Z,8.72
2023-02-20T20:23:51.363Z,8.72
2023-02-20T20:26:22.252Z,8.77
2023-02-20T20:28:49.098Z,8.79
2023-02-20T20:31:20.020Z,8.78
2023-02-20T20:33:46.822Z,8.77
2023-02-20T20:36:15.106Z,8.81
2023-02-20T20:38:42.561Z,8.79
2023-02-20T20:41:10.858Z,8.65
2023-02-20T20:43:38.040Z,8.77
2023-02-20T20:46:05.315Z,8.77
2023-02-20T20:48:32.691Z,8.62
2023-02-20T20:50:59.922Z,8.70
2023-02-20T20:53:26.904Z,8.68
2023-02-20T20:55:53.767Z,8.75
2023-02-20T20:58:21.132Z,8.68
2023-02-20T21:00:48.033Z,8.67
2023-02-20T21:03:16.306Z,8.53
2023-02-20T21:05:43.555Z,8.65
2023-02-20T21:08:10.521Z,8.67
2023-02-20T21:10:38.375Z,8.66
2023-02-20T21:13:05.716Z,8.72
2023-02-20T21:15:34.470Z,8.72
2023-02-20T21:18:02.050Z,8.66
2023-02-20T21:20:31.047Z,8.67
2023-02-20T21:22:59.835Z,8.71
2023-02-20T21:25:30.258Z,8.71
2023-02-20T21:28:00.589Z,8.71
2023-02-20T21:30:27.985Z,8.80
2023-02-20T21:32:55.025Z,8.76
2023-02-20T21:35:23.532Z,8.76
2023-02-20T21:37:52.642Z,8.84
2023-02-20T21:40:19.879Z,8.82
2023-02-20T21:43:05.714Z,8.71
2023-02-20T21:45:35.140Z,8.72
2023-02-20T21:48:02.940Z,8.64
2023-02-20T21:50:29.899Z,8.67
2023-02-20T21:52:56.867Z,8.69
2023-02-20T21:55:24.417Z,8.65
2023-02-20T21:57:51.675Z,8.64
2023-02-20T22:00:18.594Z,8.57
2023-02-20T22:02:47.177Z,8.66
2023-02-20T22:05:13.989Z,8.63
2023-02-20T22:08:01.763Z,8.66
2023-02-20T22:10:47.333Z,8.60
2023-02-20T22:13:32.958Z,8.55
2023-02-20T22:16:18.631Z,8.61
2023-02-20T22:19:03.969Z,8.67
2023-02-20T22:21:49.242Z,8.62
2023-02-20T22:24:38.565Z,8.64
2023-02-20T22:27:29.384Z,8.73
2023-02-20T22:30:14.623Z,8.56
2023-02-20T22:33:00.430Z,8.83
2023-02-20T22:35:45.961Z,8.75
2023-02-20T22:38:31.760Z,8.64
2023-02-20T22:41:19.232Z,8.63
2023-02-20T22:44:05.921Z,8.55
2023-02-20T22:46:51.395Z,8.58
2023-02-20T22:49:37.161Z,8.57
2023-02-20T22:52:22.517Z,8.62
2023-02-20T22:55:08.591Z,8.57
2023-02-20T22:57:54.433Z,8.52
2023-02-20T23:00:39.691Z,8.54
2023-02-20T23:03:25.553Z,8.55
2023-02-20T23:06:17.915Z,8.55
2023-02-20T23:09:05.735Z,8.54
2023-02-20T23:11:53.113Z,8.50
2023-02-20T23:14:38.792Z,8.54
2023-02-20T23:17:34.888Z,8.59
2023-02-20T23:20:32.554Z,8.45
2023-02-20T23:23:18.184Z,8.47
2023-02-20T23:26:03.748Z,8.60
2023-02-20T23:28:49.520Z,8.55
2023-02-20T23:31:36.153Z,8.56
2023-02-20T23:34:22.665Z,8.38
2023-02-20T23:37:11.262Z,8.46
2023-02-20T23:39:56.785Z,8.66
2023-02-20T23:42:59.078Z,8.45
2023-02-20T23:45:44.983Z,8.34
2023-02-20T23:48:31.434Z,8.30
2023-02-20T23:51:17.853Z,8.28
2023-02-20T23:54:03.230Z,8.22
2023-02-20T23:56:48.571Z,8.26
2023-02-20T23:59:33.897Z,8.35
